Airfield :
LOGIN :

Register | Disclaimer

   EN    FR    IT 

 










Legend :    VFR   Marginal VFR   IFR   Intensive IFR   Very Intensive IFR
Visi :
Ceiling :
>= 8 km
>= 3000ft
5 to 8 km
1000 to 3000 ft
1500m to 5 km
500 to 1000 ft
800 to 1500m
200 to 500 ft
< 800m
< 200 ft
Symbols :   Thunderstorms  Fog  Heavy snow  Heavy precipitations  Wind > 20 kt
SIGMETs :     Misc.  Thunderstorms  Icing  Turbulence  Mountain Waves  Volcanic Ashes






- Airport Elevation : 308 ft
- IATA code : POZ


EPPO - Poznan-Lawica

CURRENT METAR :
  • 140900Z 17004KT 9999 FEW003 04/02 Q1011

EXPIRED METARs :
  • 140830Z 18006KT 8000 FEW002 03/02 Q1011
  • 140800Z 17006KT 7000 FEW003 02/02 Q1011
  • 140730Z 14004KT 3800 BR NSC 02/01 Q1010
  • 140700Z 17004KT 3200 BR NSC 02/01 Q1010
  • 140630Z 17003KT 4000 BR NSC 02/01 Q1009

TAF TAF EPPO
Valid from the 14 at 06:00 until the 15 at 06:00 UTC


140530Z 1406/1506 18006KT CAVOK
TEMPO 1406/1408 2500 BR BKN004 BKN010
BECMG 1415/1418 10010KT
BECMG 1421/1424 BKN010
TEMPO 1500/1506 09015G25KT 2500 BR BKN004



MET'MAP, your aeronautical weather chart ! - Copyright ORBIFLY December 2007 - Disclaimer

ORBIFLY MET'MAP TEAM :

Programming & Development : Alexandra Zaïnal
Concept & Development : Baudouin d'Aumeries
Co-Development & Prog : Marc-Olivier Méhu
Technical & hardware support : Manuel Goepfert

Contact : metmap@orbifly.com




SOURCES & CREDITS :

   NOAA